Time;durP1;ratioP1;P1;durP2;ratioP2;P2;SDS_P1;SDS_P2;PMS_P1;PMS_P2;Temp;Humidity;BMP_temperature;BMP_pressure;BME280_temperature;BME280_humidity;BME280_pressure;Samples;Min_cycle;Max_cycle;Signal;HPM_P1;HPM_P2
2022/01/08 00:01:29;;;;;;;12.30;11.47;;;1.90;99.90;;;;;;5105244;28;20431;-78
2022/01/08 00:03:56;;;;;;;12.17;11.47;;;1.90;99.90;;;;;;5104061;28;20441;-78
2022/01/08 00:06:23;;;;;;;12.20;11.40;;;1.90;99.90;;;;;;5095781;28;20491;-77
2022/01/08 00:08:51;;;;;;;12.43;11.57;;;2.00;99.90;;;;;;5086542;28;20448;-79
2022/01/08 00:11:20;;;;;;;13.00;12.10;;;2.00;99.90;;;;;;5091589;28;20471;-78
2022/01/08 00:13:48;;;;;;;12.77;11.80;;;2.00;99.90;;;;;;5078593;28;20477;-78
2022/01/08 00:16:15;;;;;;;12.10;11.30;;;2.00;99.90;;;;;;5083579;28;20468;-78
2022/01/08 00:18:42;;;;;;;12.30;11.60;;;2.00;99.90;;;;;;5086511;28;20445;-77
2022/01/08 00:21:08;;;;;;;12.30;11.50;;;2.00;99.90;;;;;;5095384;28;20426;-78
2022/01/08 00:23:35;;;;;;;12.13;11.40;;;2.00;99.90;;;;;;5108027;28;20440;-79
2022/01/08 00:26:06;;;;;;;12.30;11.60;;;2.00;99.90;;;;;;5088998;28;20477;-78
2022/01/08 00:28:33;;;;;;;12.53;11.77;;;2.10;99.90;;;;;;5082139;28;20446;-78
2022/01/08 00:31:00;;;;;;;12.37;11.57;;;2.20;99.90;;;;;;5088546;28;20476;-77
2022/01/08 00:33:27;;;;;;;12.07;11.27;;;2.20;99.90;;;;;;5088843;28;20444;-77
2022/01/08 00:35:54;;;;;;;12.10;11.40;;;2.30;99.90;;;;;;5087640;28;20474;-78
2022/01/08 00:38:21;;;;;;;12.30;11.50;;;2.40;99.90;;;;;;5105690;28;20809;-78
2022/01/08 00:40:47;;;;;;;11.83;11.13;;;2.40;99.90;;;;;;5107272;28;20459;-78
2022/01/08 00:43:16;;;;;;;11.90;11.13;;;2.40;99.90;;;;;;5104830;28;20444;-78
2022/01/08 00:45:42;;;;;;;12.13;11.43;;;2.40;99.90;;;;;;5088240;28;20457;-77
2022/01/08 00:48:09;;;;;;;12.33;11.43;;;2.40;99.90;;;;;;5087185;28;20975;-78
2022/01/08 00:50:36;;;;;;;12.47;11.50;;;2.50;99.90;;;;;;5106382;28;20477;-78
2022/01/08 00:53:03;;;;;;;12.20;11.40;;;2.50;99.90;;;;;;5085700;28;20447;-78
2022/01/08 00:55:30;;;;;;;12.50;11.80;;;2.60;99.90;;;;;;5103043;28;20439;-78
2022/01/08 00:57:57;;;;;;;12.37;11.57;;;2.60;99.90;;;;;;5108744;23;20501;-76
2022/01/08 01:00:25;;;;;;;12.50;11.70;;;2.70;99.90;;;;;;5096380;28;20426;-76
2022/01/08 01:02:53;;;;;;;12.07;11.27;;;2.70;99.90;;;;;;5097368;28;20428;-77
2022/01/08 01:05:21;;;;;;;11.60;10.90;;;2.80;99.90;;;;;;5094108;28;20431;-75
2022/01/08 01:07:48;;;;;;;11.73;11.13;;;2.80;99.90;;;;;;5076988;28;20982;-76
2022/01/08 01:10:17;;;;;;;12.83;11.70;;;2.80;99.90;;;;;;5069139;28;20475;-76
2022/01/08 01:12:44;;;;;;;12.03;11.30;;;2.90;99.90;;;;;;5070099;28;20451;-76
2022/01/08 01:15:14;;;;;;;12.20;11.30;;;2.90;99.90;;;;;;5068946;28;20474;-76
2022/01/08 01:17:44;;;;;;;12.17;11.37;;;2.90;99.90;;;;;;5052559;28;20464;-76
2022/01/08 01:20:14;;;;;;;12.30;11.50;;;3.00;99.90;;;;;;5072631;28;20827;-76
2022/01/08 01:22:48;;;;;;;12.20;11.50;;;3.00;99.90;;;;;;5077926;28;20428;-76
2022/01/08 01:25:19;;;;;;;13.07;12.17;;;3.00;99.90;;;;;;5072788;28;20813;-76
2022/01/08 01:41:06;;;;;;;12.50;11.80;;;3.00;99.90;;;;;;4984042;28;20463;-76
2022/01/08 01:47:32;;;;;;;12.80;11.80;;;3.10;99.90;;;;;;5069838;28;20452;-76
2022/01/08 01:50:01;;;;;;;12.50;11.70;;;3.10;99.90;;;;;;5076650;28;20182;-76
2022/01/08 01:52:28;;;;;;;12.53;11.83;;;3.10;99.90;;;;;;5070922;28;20444;-76
2022/01/08 01:54:55;;;;;;;12.30;11.50;;;3.10;99.90;;;;;;5073533;28;20194;-76
2022/01/08 01:57:22;;;;;;;12.97;12.00;;;3.10;99.90;;;;;;5067806;28;20851;-76
2022/01/08 01:59:49;;;;;;;13.07;12.17;;;3.10;99.90;;;;;;5066231;28;20445;-76
2022/01/08 02:02:15;;;;;;;13.40;12.53;;;3.10;99.90;;;;;;5064511;28;20907;-76
2022/01/08 02:04:42;;;;;;;13.43;12.53;;;3.10;99.90;;;;;;5086722;28;20448;-76
2022/01/08 02:07:10;;;;;;;13.47;12.47;;;3.10;99.90;;;;;;5064910;28;20453;-76
2022/01/08 02:09:40;;;;;;;13.37;12.40;;;3.00;99.90;;;;;;5070786;28;20441;-76
2022/01/08 02:12:10;;;;;;;13.50;12.50;;;3.00;99.90;;;;;;5073192;28;20476;-76
2022/01/08 02:14:38;;;;;;;13.70;12.80;;;2.90;99.90;;;;;;5071111;28;20494;-76
2022/01/08 02:17:06;;;;;;;13.90;12.97;;;2.90;99.90;;;;;;5071017;28;20463;-76
2022/01/08 02:19:33;;;;;;;14.10;13.07;;;3.00;99.90;;;;;;5075516;28;20435;-76
2022/01/08 02:22:04;;;;;;;14.30;13.30;;;2.90;99.90;;;;;;5074740;28;21026;-76
2022/01/08 02:24:31;;;;;;;14.57;13.40;;;3.00;99.90;;;;;;5077360;28;20430;-75
2022/01/08 02:27:01;;;;;;;13.27;12.30;;;3.00;99.90;;;;;;5078002;28;21000;-77
2022/01/08 02:29:28;;;;;;;13.30;12.50;;;3.00;99.90;;;;;;5069478;28;20840;-76
2022/01/08 02:32:00;;;;;;;13.23;12.33;;;3.00;99.90;;;;;;5074514;28;20218;-76
2022/01/08 02:34:29;;;;;;;13.43;12.43;;;3.00;99.90;;;;;;5064831;28;20288;-76
2022/01/08 02:37:00;;;;;;;12.93;12.13;;;3.10;99.90;;;;;;5072972;28;20986;-76
2022/01/08 02:39:30;;;;;;;13.17;12.17;;;3.10;99.90;;;;;;5074184;28;20432;-76
2022/01/08 02:41:59;;;;;;;12.80;12.00;;;3.10;99.90;;;;;;5073324;28;20924;-76
2022/01/08 02:44:27;;;;;;;12.63;11.80;;;3.10;99.90;;;;;;5067376;28;20930;-76
2022/01/08 02:46:54;;;;;;;13.83;12.87;;;3.20;99.90;;;;;;5067688;28;20857;-76
2022/01/08 02:49:23;;;;;;;12.80;12.00;;;3.20;99.90;;;;;;5066746;28;20426;-76
2022/01/08 02:51:50;;;;;;;12.87;11.97;;;3.20;99.90;;;;;;5071685;28;20576;-76
2022/01/08 02:54:17;;;;;;;12.73;11.83;;;3.20;99.90;;;;;;5075162;28;20199;-74
2022/01/08 02:56:48;;;;;;;12.07;11.37;;;3.30;99.90;;;;;;5082949;28;20224;-76
2022/01/08 02:59:15;;;;;;;12.20;11.50;;;3.30;99.90;;;;;;5075059;28;20194;-76
2022/01/08 03:01:42;;;;;;;11.77;11.07;;;3.40;99.90;;;;;;5066462;28;20237;-76
2022/01/08 03:04:11;;;;;;;5.63;5.20;;;3.50;99.90;;;;;;5063217;28;20209;-76
2022/01/08 03:06:39;;;;;;;4.70;3.97;;;3.50;99.90;;;;;;5066933;28;20498;-76
2022/01/08 03:09:06;;;;;;;4.37;4.07;;;3.60;99.90;;;;;;5074311;28;20198;-76
2022/01/08 03:11:34;;;;;;;5.10;4.70;;;3.60;99.90;;;;;;5079152;28;20218;-76
2022/01/08 03:14:04;;;;;;;7.27;6.67;;;3.70;99.90;;;;;;5067260;28;20209;-76
2022/01/08 03:16:31;;;;;;;5.50;5.20;;;3.70;99.90;;;;;;5069507;28;20205;-76
2022/01/08 03:18:58;;;;;;;3.63;3.33;;;3.70;99.90;;;;;;5071485;28;20198;-76
2022/01/08 03:21:34;;;;;;;3.40;3.10;;;3.70;99.90;;;;;;5064491;28;20197;-76
2022/01/08 03:24:02;;;;;;;3.07;2.87;;;3.70;99.90;;;;;;5064098;28;20212;-76
2022/01/08 03:26:30;;;;;;;3.10;2.90;;;3.70;99.90;;;;;;5075505;28;20222;-76
2022/01/08 03:28:58;;;;;;;3.40;3.10;;;3.70;99.90;;;;;;5084473;28;20187;-76
2022/01/08 03:31:27;;;;;;;2.80;2.60;;;3.80;99.90;;;;;;5068025;28;20685;-76
2022/01/08 03:33:55;;;;;;;3.97;2.90;;;3.80;99.90;;;;;;5080552;28;20191;-76
2022/01/08 03:36:23;;;;;;;2.90;2.70;;;3.80;99.90;;;;;;5072141;28;20225;-76
2022/01/08 03:38:51;;;;;;;2.87;2.67;;;3.90;99.90;;;;;;5072625;28;20194;-77
2022/01/08 03:41:18;;;;;;;2.80;2.60;;;3.90;99.90;;;;;;5069986;28;20201;-76
2022/01/08 03:43:45;;;;;;;3.77;3.00;;;3.90;99.90;;;;;;5068579;28;20193;-76
2022/01/08 03:46:11;;;;;;;2.63;2.53;;;4.00;99.90;;;;;;5067354;28;20199;-76
2022/01/08 03:48:47;;;;;;;2.90;2.70;;;4.10;99.90;;;;;;5062382;28;20199;-76
2022/01/08 03:51:15;;;;;;;2.70;2.50;;;4.10;99.90;;;;;;5066339;28;20496;-76
2022/01/08 03:53:44;;;;;;;2.70;2.50;;;4.10;99.90;;;;;;5072624;28;20196;-76
2022/01/08 03:56:10;;;;;;;2.53;2.33;;;4.10;99.90;;;;;;5070252;28;20190;-76
2022/01/08 03:58:37;;;;;;;2.77;2.57;;;4.10;99.90;;;;;;5055384;28;20206;-76
2022/01/08 04:01:04;;;;;;;2.40;2.30;;;4.10;99.90;;;;;;5070611;28;20195;-76
2022/01/08 04:03:31;;;;;;;2.50;2.40;;;4.20;99.90;;;;;;5046125;28;20210;-76
2022/01/08 04:06:00;;;;;;;2.30;2.20;;;4.20;99.90;;;;;;5063236;28;20199;-76
2022/01/08 04:08:27;;;;;;;2.63;2.37;;;4.20;99.90;;;;;;5061021;28;20211;-76
2022/01/08 04:10:53;;;;;;;2.50;2.40;;;4.20;99.90;;;;;;5072997;28;20213;-78
2022/01/08 04:13:24;;;;;;;2.30;2.20;;;4.30;99.90;;;;;;5074386;28;20209;-76
2022/01/08 04:15:54;;;;;;;2.43;2.33;;;4.20;99.90;;;;;;5067380;28;20191;-76
2022/01/08 04:18:21;;;;;;;2.43;2.23;;;4.20;99.90;;;;;;5072664;28;20620;-77
2022/01/08 04:20:56;;;;;;;2.30;2.20;;;4.20;99.90;;;;;;5074606;28;20593;-79
2022/01/08 04:23:24;;;;;;;2.30;2.20;;;4.20;99.90;;;;;;5076994;28;20219;-80
2022/01/08 04:25:51;;;;;;;2.30;2.20;;;4.20;99.90;;;;;;5069360;28;20198;-81
2022/01/08 04:28:18;;;;;;;2.10;2.10;;;4.20;99.90;;;;;;5058552;28;20218;-77
2022/01/08 04:30:46;;;;;;;2.50;2.30;;;4.20;99.90;;;;;;5075298;28;20194;-76
2022/01/08 04:33:13;;;;;;;2.43;2.33;;;4.20;99.90;;;;;;5075386;28;20206;-76
2022/01/08 04:35:40;;;;;;;2.30;2.20;;;4.20;99.90;;;;;;5067418;28;20667;-76
2022/01/08 04:38:07;;;;;;;2.53;2.30;;;4.20;99.90;;;;;;5069201;28;20586;-77
2022/01/08 04:40:36;;;;;;;2.50;2.30;;;4.20;99.90;;;;;;5063860;28;20201;-76
2022/01/08 04:43:03;;;;;;;2.43;2.33;;;4.20;99.90;;;;;;5079683;28;20194;-77
2022/01/08 04:45:30;;;;;;;2.60;2.50;;;4.20;99.90;;;;;;5070721;28;20195;-77
2022/01/08 04:47:58;;;;;;;2.50;2.30;;;4.20;99.90;;;;;;5068832;28;20703;-76
2022/01/08 04:50:26;;;;;;;2.40;2.30;;;4.20;99.90;;;;;;5073164;28;20198;-76
2022/01/08 04:52:53;;;;;;;2.60;2.40;;;4.20;99.90;;;;;;5068577;28;20699;-76
2022/01/08 04:55:20;;;;;;;2.57;2.37;;;4.20;99.90;;;;;;5069913;28;20678;-76
2022/01/08 04:57:49;;;;;;;2.60;2.50;;;4.20;99.90;;;;;;5070772;28;20252;-76
2022/01/08 05:00:17;;;;;;;2.30;2.20;;;4.10;99.90;;;;;;5071433;28;20186;-76
2022/01/08 05:02:44;;;;;;;2.37;2.27;;;4.10;99.90;;;;;;5071263;28;20202;-76
2022/01/08 05:05:11;;;;;;;2.30;2.20;;;4.10;99.90;;;;;;5069074;28;20210;-76
2022/01/08 05:07:39;;;;;;;2.63;2.40;;;4.00;99.90;;;;;;5069580;28;20225;-76
2022/01/08 05:10:09;;;;;;;2.80;2.60;;;4.00;99.90;;;;;;5070513;28;20202;-76
2022/01/08 05:12:36;;;;;;;2.27;2.17;;;4.00;99.90;;;;;;5076863;28;20257;-76
2022/01/08 05:15:05;;;;;;;6.17;5.87;;;4.00;99.90;;;;;;5079453;28;20190;-76
2022/01/08 05:17:35;;;;;;;3.33;3.23;;;3.90;99.90;;;;;;5076505;28;20596;-76
2022/01/08 05:20:04;;;;;;;5.50;5.20;;;3.90;99.90;;;;;;5067503;28;20195;-76
2022/01/08 05:22:48;;;;;;;7.10;6.70;;;3.90;99.90;;;;;;5071855;28;20190;-76
2022/01/08 05:25:15;;;;;;;2.40;2.30;;;3.90;99.90;;;;;;5068004;28;20205;-76
2022/01/08 05:27:42;;;;;;;2.90;2.70;;;3.90;99.90;;;;;;5066548;28;20556;-76
2022/01/08 05:30:12;;;;;;;2.87;2.60;;;3.90;99.90;;;;;;5059873;28;20187;-77
2022/01/08 05:32:39;;;;;;;2.70;2.50;;;3.90;99.90;;;;;;5066495;28;20225;-79
2022/01/08 05:35:06;;;;;;;3.23;2.40;;;3.90;99.90;;;;;;5067202;28;20197;-77
2022/01/08 05:37:33;;;;;;;3.67;3.37;;;3.80;99.90;;;;;;5077980;28;20214;-77
2022/01/08 05:40:01;;;;;;;5.83;5.53;;;3.80;99.90;;;;;;5070156;28;20202;-77
2022/01/08 05:42:27;;;;;;;11.70;11.00;;;3.80;99.90;;;;;;5068307;28;20206;-77
2022/01/08 05:44:54;;;;;;;11.20;10.60;;;3.80;99.90;;;;;;5069146;28;20201;-77
2022/01/08 05:47:23;;;;;;;10.20;9.70;;;3.80;99.90;;;;;;5085476;28;20221;-78
2022/01/08 05:49:50;;;;;;;3.90;3.70;;;3.80;99.90;;;;;;5080973;28;20187;-78
2022/01/08 05:52:17;;;;;;;5.43;5.13;;;3.80;99.90;;;;;;5071515;28;20596;-80
2022/01/08 05:54:44;;;;;;;7.80;7.40;;;3.80;99.90;;;;;;5080927;28;20197;-78
2022/01/08 05:57:14;;;;;;;4.93;4.73;;;3.70;99.90;;;;;;5078021;28;20230;-77
2022/01/08 05:59:41;;;;;;;9.07;8.57;;;3.70;99.90;;;;;;5076856;28;20195;-76
2022/01/08 06:02:09;;;;;;;4.10;3.90;;;3.70;99.90;;;;;;5077445;28;20190;-76
2022/01/08 06:04:37;;;;;;;4.10;3.90;;;3.60;99.90;;;;;;5056241;28;20290;-75
2022/01/08 06:07:04;;;;;;;4.93;4.73;;;3.60;99.90;;;;;;5075789;28;20210;-75
2022/01/08 06:09:31;;;;;;;2.73;2.63;;;3.60;99.90;;;;;;5077046;28;20199;-75
2022/01/08 06:11:58;;;;;;;10.33;9.83;;;3.60;99.90;;;;;;5079539;28;20653;-76
2022/01/08 06:14:25;;;;;;;7.10;6.77;;;3.60;99.90;;;;;;5087428;28;20201;-76
2022/01/08 06:16:52;;;;;;;5.33;5.07;;;3.50;99.90;;;;;;5076770;28;20476;-76
2022/01/08 06:19:19;;;;;;;10.93;10.33;;;3.50;99.90;;;;;;5081768;28;20659;-78
2022/01/08 06:21:48;;;;;;;11.83;11.23;;;3.50;99.90;;;;;;5074706;28;20834;-78
2022/01/08 06:24:15;;;;;;;5.50;4.20;;;3.40;99.90;;;;;;5076067;28;20198;-77
2022/01/08 06:26:42;;;;;;;9.43;8.93;;;3.40;99.90;;;;;;5072223;28;20272;-77
2022/01/08 06:29:09;;;;;;;9.40;8.90;;;3.30;99.90;;;;;;5073303;28;20198;-79
2022/01/08 06:31:36;;;;;;;10.63;10.10;;;3.30;99.90;;;;;;5071137;28;20214;-78
2022/01/08 06:34:03;;;;;;;7.17;6.77;;;3.20;99.90;;;;;;5062743;28;20202;-79
2022/01/08 06:36:30;;;;;;;8.43;8.03;;;3.20;99.90;;;;;;5073995;28;20300;-76
2022/01/08 06:38:59;;;;;;;11.90;11.20;;;3.10;99.90;;;;;;5073924;28;20195;-79
2022/01/08 06:41:30;;;;;;;12.20;11.60;;;3.10;99.90;;;;;;5070512;28;20460;-78
2022/01/08 06:43:59;;;;;;;11.90;11.30;;;3.00;99.90;;;;;;5066958;28;20195;-78
2022/01/08 06:46:26;;;;;;;12.23;11.50;;;2.90;99.90;;;;;;5077039;28;20456;-78
2022/01/08 06:48:53;;;;;;;12.23;11.63;;;2.90;99.90;;;;;;5073955;28;20459;-78
2022/01/08 06:51:20;;;;;;;12.10;11.50;;;2.90;99.90;;;;;;5075327;28;20435;-78
2022/01/08 06:53:47;;;;;;;12.17;11.57;;;2.90;99.90;;;;;;5063409;28;20493;-77
2022/01/08 06:58:45;;;;;;;12.40;11.70;;;2.80;99.90;;;;;;5074575;28;20441;-78
2022/01/08 07:01:12;;;;;;;11.70;11.10;;;2.70;99.90;;;;;;5075622;28;20471;-78
2022/01/08 07:03:39;;;;;;;12.03;11.43;;;2.70;99.90;;;;;;5074418;28;20437;-78
2022/01/08 07:06:06;;;;;;;11.90;11.30;;;2.60;99.90;;;;;;5074409;28;20443;-80
2022/01/08 07:08:33;;;;;;;12.17;11.57;;;2.60;99.90;;;;;;5063563;28;20463;-78
2022/01/08 07:11:00;;;;;;;12.30;11.70;;;2.60;99.90;;;;;;5063780;28;20454;-78
2022/01/08 07:13:26;;;;;;;12.30;11.60;;;2.60;99.90;;;;;;5081305;28;20482;-77
2022/01/08 07:15:55;;;;;;;12.50;11.80;;;2.60;99.90;;;;;;5083789;28;20435;-79
2022/01/08 07:18:21;;;;;;;12.47;11.70;;;2.60;99.90;;;;;;5082372;28;20762;-78
2022/01/08 07:20:48;;;;;;;12.57;11.87;;;2.70;99.90;;;;;;5073926;28;20448;-78
2022/01/08 07:23:15;;;;;;;12.77;12.07;;;2.60;99.90;;;;;;5066428;28;20449;-79
2022/01/08 07:25:42;;;;;;;13.40;12.57;;;2.60;99.90;;;;;;5062607;28;20453;-78
2022/01/08 07:28:11;;;;;;;13.63;12.73;;;2.60;99.90;;;;;;5074771;28;20535;-77
2022/01/08 07:30:38;;;;;;;13.40;12.60;;;2.70;99.90;;;;;;5090170;28;20441;-79
2022/01/08 07:33:06;;;;;;;12.90;12.20;;;2.70;99.90;;;;;;5055849;28;20465;-78
2022/01/08 07:35:33;;;;;;;13.43;12.73;;;2.60;99.90;;;;;;5074228;28;20960;-77
2022/01/08 07:38:00;;;;;;;13.20;12.50;;;2.60;99.90;;;;;;5059897;28;20522;-78
2022/01/08 07:40:27;;;;;;;13.20;12.30;;;2.70;99.90;;;;;;5076702;28;20429;-78
2022/01/08 07:42:55;;;;;;;12.80;12.10;;;2.70;99.90;;;;;;5073508;28;20840;-78
2022/01/08 07:45:22;;;;;;;13.17;12.27;;;2.70;99.90;;;;;;5081313;28;20455;-81
2022/01/08 07:47:49;;;;;;;13.10;12.40;;;2.70;99.90;;;;;;5070943;28;20479;-78
2022/01/08 07:50:18;;;;;;;13.30;12.37;;;2.70;99.90;;;;;;5089905;28;20494;-78
2022/01/08 07:52:45;;;;;;;12.97;12.27;;;2.70;99.90;;;;;;5065446;28;20468;-78
2022/01/08 07:55:13;;;;;;;13.30;12.60;;;2.70;99.90;;;;;;5073839;28;20839;-77
2022/01/08 07:57:41;;;;;;;13.77;12.87;;;2.70;99.90;;;;;;5072304;28;20482;-78
2022/01/08 08:00:09;;;;;;;13.17;12.37;;;2.70;99.90;;;;;;5079482;28;20932;-78
2022/01/08 08:02:39;;;;;;;12.43;11.73;;;2.80;99.90;;;;;;5072988;28;20540;-79
2022/01/08 08:05:07;;;;;;;13.10;12.30;;;2.80;99.90;;;;;;5078682;28;20438;-80
2022/01/08 08:07:37;;;;;;;13.10;12.40;;;2.70;99.90;;;;;;5064616;28;20521;-78
2022/01/08 08:10:06;;;;;;;12.90;12.10;;;2.80;99.90;;;;;;5060110;28;20501;-79
2022/01/08 08:12:33;;;;;;;12.87;12.17;;;2.70;99.90;;;;;;5082477;28;20499;-78
2022/01/08 08:15:00;;;;;;;12.80;12.10;;;2.70;99.90;;;;;;5083081;28;20440;-79
2022/01/08 08:17:27;;;;;;;13.50;12.70;;;2.70;99.90;;;;;;5074280;28;20463;-81
2022/01/08 08:19:53;;;;;;;13.40;12.60;;;2.70;99.90;;;;;;5068637;28;20451;-79
2022/01/08 08:22:20;;;;;;;12.90;12.20;;;2.70;99.90;;;;;;5070136;28;21012;-79
2022/01/08 08:24:49;;;;;;;13.03;12.33;;;2.70;99.90;;;;;;5061293;28;20453;-79
2022/01/08 08:27:15;;;;;;;13.23;12.37;;;2.70;99.90;;;;;;5064786;28;20576;-79
2022/01/08 08:29:42;;;;;;;13.40;12.60;;;2.70;99.90;;;;;;5063818;28;20451;-79
2022/01/08 08:32:10;;;;;;;13.10;12.20;;;2.70;99.90;;;;;;5056947;28;20904;-80
2022/01/08 08:34:40;;;;;;;13.10;12.37;;;2.80;99.90;;;;;;5062573;28;20453;-79
2022/01/08 08:37:07;;;;;;;13.40;12.50;;;2.70;99.90;;;;;;5078527;28;20457;-79
2022/01/08 08:39:34;;;;;;;12.63;11.93;;;2.70;99.90;;;;;;5068635;28;20446;-79
2022/01/08 08:42:02;;;;;;;13.10;12.40;;;2.70;99.90;;;;;;5070038;28;20451;-79
2022/01/08 08:44:29;;;;;;;13.40;12.60;;;2.70;99.90;;;;;;5065383;28;20475;-79
2022/01/08 08:46:56;;;;;;;12.70;12.00;;;2.80;99.90;;;;;;5074408;28;20455;-79
2022/01/08 08:49:23;;;;;;;13.27;12.50;;;2.70;99.90;;;;;;5080604;28;20454;-79
2022/01/08 08:51:50;;;;;;;12.93;12.03;;;2.80;99.90;;;;;;5069077;28;20456;-79
2022/01/08 08:54:17;;;;;;;13.00;12.23;;;2.80;99.90;;;;;;5056745;28;20473;-81
2022/01/08 08:56:44;;;;;;;12.60;11.80;;;2.90;99.90;;;;;;5060316;28;20474;-79
2022/01/08 08:59:12;;;;;;;12.80;11.97;;;3.00;99.90;;;;;;5074332;28;20443;-77
2022/01/08 09:01:39;;;;;;;12.43;11.73;;;3.10;99.90;;;;;;5048538;28;20459;-78
2022/01/08 09:04:06;;;;;;;12.53;11.83;;;3.10;99.90;;;;;;5066539;28;20807;-78
2022/01/08 09:06:33;;;;;;;12.60;11.90;;;3.20;99.90;;;;;;5075301;28;20447;-78
2022/01/08 09:09:00;;;;;;;12.70;12.00;;;3.20;99.90;;;;;;5072665;28;20820;-78
2022/01/08 09:11:28;;;;;;;11.43;10.63;;;3.20;99.90;;;;;;5066573;28;20448;-77
2022/01/08 09:13:55;;;;;;;11.63;10.93;;;3.40;99.90;;;;;;5071293;28;20304;-79
2022/01/08 09:16:24;;;;;;;11.67;10.97;;;3.40;99.90;;;;;;5055974;28;20510;-77
2022/01/08 09:18:51;;;;;;;11.10;10.40;;;3.40;99.90;;;;;;5081592;28;20224;-79
2022/01/08 09:21:18;;;;;;;11.40;10.70;;;3.40;99.90;;;;;;5073395;28;20451;-77
2022/01/08 09:23:45;;;;;;;11.23;10.53;;;3.40;99.90;;;;;;5064264;28;20446;-77
2022/01/08 09:26:12;;;;;;;11.73;10.90;;;3.50;99.90;;;;;;5076927;28;20459;-75
2022/01/08 09:28:39;;;;;;;11.10;10.50;;;3.50;99.90;;;;;;5059399;28;20217;-79
2022/01/08 09:31:06;;;;;;;11.10;10.40;;;3.50;99.90;;;;;;5069217;28;20198;-78
2022/01/08 09:33:36;;;;;;;11.47;10.77;;;3.50;99.90;;;;;;5075381;28;20480;-77
2022/01/08 09:36:03;;;;;;;11.13;10.27;;;3.50;99.90;;;;;;5070775;28;20636;-77
2022/01/08 09:38:30;;;;;;;11.77;10.93;;;3.50;99.90;;;;;;5056960;28;21032;-78
2022/01/08 09:40:57;;;;;;;11.60;10.70;;;3.40;99.90;;;;;;5066442;28;20444;-80
2022/01/08 09:43:25;;;;;;;11.43;10.73;;;3.40;99.90;;;;;;5075724;28;20190;-78
2022/01/08 09:45:52;;;;;;;11.23;10.53;;;3.40;99.90;;;;;;5072013;28;20819;-79
2022/01/08 09:48:19;;;;;;;11.10;10.40;;;3.40;99.90;;;;;;5084453;28;20241;-78
2022/01/08 09:50:47;;;;;;;11.27;10.50;;;3.50;99.90;;;;;;5066203;28;20467;-80
2022/01/08 09:53:14;;;;;;;11.37;10.60;;;3.50;99.90;;;;;;5057924;28;20485;-80
2022/01/08 09:55:41;;;;;;;11.50;10.80;;;3.60;99.90;;;;;;5058731;28;20477;-79
2022/01/08 09:58:08;;;;;;;11.30;10.50;;;3.60;99.90;;;;;;5062090;28;20703;-79
2022/01/08 10:00:38;;;;;;;11.40;10.70;;;3.60;99.90;;;;;;5059820;28;20441;-79
2022/01/08 10:03:16;;;;;;;11.00;10.30;;;3.60;99.90;;;;;;5066749;28;20198;-79
2022/01/08 10:05:49;;;;;;;11.40;10.70;;;3.50;99.90;;;;;;5065682;28;20195;-79
2022/01/08 10:08:22;;;;;;;11.53;10.83;;;3.60;99.90;;;;;;5089360;28;20218;-79
2022/01/08 10:10:58;;;;;;;11.67;10.97;;;3.70;99.90;;;;;;5071879;28;20205;-79
2022/01/08 10:13:36;;;;;;;11.70;10.80;;;3.70;99.90;;;;;;5056789;28;20214;-80
2022/01/08 10:18:49;;;;;;;8.53;7.93;;;3.90;99.90;;;;;;5068419;28;20280;-80
2022/01/08 10:21:20;;;;;;;8.70;8.10;;;3.90;99.90;;;;;;5060226;28;20218;-80
2022/01/08 10:23:49;;;;;;;7.67;7.10;;;4.00;99.90;;;;;;5080780;28;20196;-80
2022/01/08 10:26:18;;;;;;;4.17;3.87;;;4.00;99.90;;;;;;5078328;28;20200;-80
2022/01/08 10:28:49;;;;;;;4.33;3.43;;;3.90;99.90;;;;;;5059866;28;20202;-80
2022/01/08 10:31:22;;;;;;;7.17;6.67;;;3.90;99.90;;;;;;5064598;28;20290;-80
2022/01/08 10:33:51;;;;;;;8.63;8.07;;;3.80;99.90;;;;;;5058233;28;20642;-79
2022/01/08 10:36:26;;;;;;;7.80;7.30;;;3.80;99.90;;;;;;5082091;28;20199;-79
2022/01/08 10:38:55;;;;;;;6.27;5.80;;;3.80;99.90;;;;;;5074547;28;20204;-79
2022/01/08 10:41:23;;;;;;;7.07;6.57;;;3.80;99.90;;;;;;5078516;28;20201;-79
2022/01/08 10:44:05;;;;;;;6.23;5.83;;;3.80;99.90;;;;;;5080617;28;20208;-79
2022/01/08 10:46:33;;;;;;;9.27;8.53;;;3.70;99.90;;;;;;5064607;28;20198;-79
2022/01/08 10:49:00;;;;;;;5.73;5.33;;;3.70;99.90;;;;;;5089462;28;20206;-79
2022/01/08 10:51:35;;;;;;;5.43;5.00;;;3.70;99.90;;;;;;5086607;28;20203;-78
2022/01/08 10:54:10;;;;;;;9.67;8.97;;;3.70;99.90;;;;;;5091814;28;20674;-78
2022/01/08 10:56:41;;;;;;;4.77;4.40;;;3.70;99.90;;;;;;5093451;28;20224;-77
2022/01/08 10:59:12;;;;;;;4.20;2.90;;;3.80;99.90;;;;;;5082392;28;20332;-78
2022/01/08 11:01:46;;;;;;;3.67;3.33;;;3.90;99.90;;;;;;5078535;28;20199;-79
2022/01/08 11:04:15;;;;;;;4.20;3.90;;;4.10;99.90;;;;;;5067303;28;20579;-79
2022/01/08 11:06:57;;;;;;;5.07;4.57;;;4.20;99.90;;;;;;5066207;28;20229;-81
2022/01/08 11:09:26;;;;;;;6.10;4.00;;;4.30;99.90;;;;;;5078597;28;20408;-79
2022/01/08 11:11:55;;;;;;;3.17;2.93;;;4.40;99.90;;;;;;5076368;28;20197;-78
2022/01/08 11:14:59;;;;;;;4.87;4.37;;;4.60;99.90;;;;;;5086024;28;20213;-79
2022/01/08 11:17:29;;;;;;;3.40;3.00;;;4.70;99.90;;;;;;5070609;28;20222;-80
2022/01/08 11:19:58;;;;;;;3.93;2.90;;;4.80;99.90;;;;;;5082768;28;20200;-78
2022/01/08 11:22:29;;;;;;;4.03;3.50;;;4.90;99.90;;;;;;5080293;28;20197;-78
2022/01/08 11:24:59;;;;;;;4.63;3.33;;;4.90;99.90;;;;;;5064016;28;20256;-79
2022/01/08 11:27:35;;;;;;;3.40;3.10;;;4.90;99.90;;;;;;5091081;28;20221;-78
2022/01/08 11:30:13;;;;;;;3.23;2.93;;;5.00;99.90;;;;;;5066223;28;20663;-78
2022/01/08 11:32:41;;;;;;;3.40;3.10;;;4.90;99.90;;;;;;5059540;28;20194;-79
2022/01/08 11:35:11;;;;;;;3.80;3.20;;;5.00;99.90;;;;;;5070438;28;20215;-79
2022/01/08 11:37:45;;;;;;;5.80;5.40;;;5.10;99.90;;;;;;5057467;28;20281;-78
2022/01/08 11:40:15;;;;;;;4.90;4.60;;;5.10;99.90;;;;;;5068707;28;20660;-79
2022/01/08 11:42:42;;;;;;;3.20;2.90;;;5.10;99.90;;;;;;5070165;28;20210;-79
2022/01/08 11:45:14;;;;;;;3.10;2.90;;;5.20;99.90;;;;;;5067634;28;20195;-78
2022/01/08 11:47:45;;;;;;;6.37;5.97;;;5.30;99.90;;;;;;5060569;28;20746;-78
2022/01/08 11:50:13;;;;;;;6.40;6.00;;;5.40;99.90;;;;;;5075904;28;20286;-78
2022/01/08 11:52:42;;;;;;;6.90;6.30;;;5.50;99.90;;;;;;5068005;28;20209;-78
2022/01/08 11:55:10;;;;;;;6.03;5.67;;;5.40;99.90;;;;;;5060979;28;20650;-78
2022/01/08 11:57:37;;;;;;;6.30;5.80;;;5.50;99.90;;;;;;5071226;28;20217;-78
2022/01/08 12:00:06;;;;;;;6.43;6.00;;;5.50;99.90;;;;;;5054372;28;20199;-78
2022/01/08 12:02:44;;;;;;;6.87;6.37;;;5.40;99.90;;;;;;5076050;28;20195;-77
2022/01/08 12:05:13;;;;;;;6.43;5.83;;;5.40;99.90;;;;;;5082888;28;20218;-77
2022/01/08 12:07:45;;;;;;;6.63;6.00;;;5.30;99.90;;;;;;5060549;28;20703;-78
2022/01/08 12:10:19;;;;;;;6.93;6.20;;;5.20;99.90;;;;;;5057851;28;20218;-78
2022/01/08 12:12:53;;;;;;;6.70;6.30;;;5.20;99.90;;;;;;5059372;28;20254;-79
2022/01/08 12:15:49;;;;;;;6.83;6.33;;;5.20;99.90;;;;;;5066116;28;20316;-80
2022/01/08 12:18:18;;;;;;;6.80;6.40;;;5.20;99.90;;;;;;5051759;28;20225;-79
2022/01/08 12:20:48;;;;;;;7.20;6.70;;;5.10;99.90;;;;;;5062437;28;20813;-79
2022/01/08 12:23:31;;;;;;;7.47;6.90;;;5.00;99.90;;;;;;5083206;28;20197;-78
2022/01/08 12:25:59;;;;;;;7.13;6.63;;;4.90;99.90;;;;;;5078687;28;20634;-80
2022/01/08 12:28:56;;;;;;;7.33;6.80;;;4.80;99.90;;;;;;5070720;28;20214;-79
2022/01/08 12:31:31;;;;;;;7.43;6.90;;;4.60;99.90;;;;;;5076609;28;20589;-79
2022/01/08 12:34:31;;;;;;;7.40;6.90;;;4.60;99.90;;;;;;5075927;28;20206;-79
2022/01/08 12:36:59;;;;;;;7.37;6.67;;;4.50;99.90;;;;;;5086879;28;20214;-79
2022/01/08 12:39:56;;;;;;;7.17;6.63;;;4.30;99.90;;;;;;5069479;28;20671;-78
2022/01/08 12:42:35;;;;;;;7.50;6.90;;;4.30;99.90;;;;;;5078866;28;20703;-77
2022/01/08 12:45:06;;;;;;;7.27;6.57;;;4.20;99.90;;;;;;5071836;28;20195;-78
2022/01/08 12:47:50;;;;;;;6.07;5.70;;;4.40;99.90;;;;;;5069831;28;20240;-78
2022/01/08 12:50:19;;;;;;;6.57;6.17;;;4.50;99.90;;;;;;5072896;28;20203;-77
2022/01/08 12:53:12;;;;;;;6.30;5.90;;;4.50;99.90;;;;;;5079504;28;20194;-77
2022/01/08 12:55:42;;;;;;;6.70;6.30;;;4.60;99.90;;;;;;5065337;28;20195;-77
2022/01/08 12:58:14;;;;;;;6.80;6.20;;;4.60;99.90;;;;;;5070896;28;20227;-77
2022/01/08 13:00:53;;;;;;;6.40;6.00;;;4.70;99.90;;;;;;5067121;28;20194;-77
2022/01/08 13:03:25;;;;;;;6.27;5.93;;;4.70;99.90;;;;;;5076307;28;20202;-77
2022/01/08 13:05:53;;;;;;;6.57;6.03;;;4.70;99.90;;;;;;5058657;28;20196;-78
2022/01/08 13:08:23;;;;;;;6.60;6.20;;;4.60;99.90;;;;;;5056929;28;20241;-77
2022/01/08 13:10:57;;;;;;;6.33;5.93;;;4.60;99.90;;;;;;5092871;22;20229;-77
2022/01/08 13:13:24;;;;;;;6.70;6.27;;;4.60;99.90;;;;;;5076024;28;20189;-77
2022/01/08 13:15:51;;;;;;;8.77;8.27;;;4.50;99.90;;;;;;5057725;28;20480;-77
2022/01/08 13:18:20;;;;;;;2.73;2.53;;;4.50;99.90;;;;;;5077896;28;20202;-77